Terminal Aerodrome Forecast
Issued by NWS

Home | Current Version | Previous Version | Text Only | Print | Product List | Glossary On
Versions: 1 2 3 4 5 6 7 8 9 10 11 12 13 14 15 16 17 18
000
FTUS46 KPDT 242327
TAFBDN
TAF
KBDN 242327Z 2500/2524 34010G18KT P6SM VCSH SCT060 SCT250
     FM250600 25006KT P6SM SCT200
     FM252000 32011KT P6SM SCT200=

USA.gov is the U.S. government's official web portal to all federal, state and local government web resources and services.